createdAt,value
2022-09-16T00:07:25.807Z,51.385
2022-09-16T00:22:28.004Z,55.792
2022-09-16T00:37:30.321Z,54.594
2022-09-16T00:52:32.588Z,53.952
2022-09-16T01:07:34.839Z,54.1
2022-09-16T01:22:37.071Z,53.23
2022-09-16T01:37:39.317Z,57.292
2022-09-16T01:52:41.730Z,56.172
2022-09-16T02:07:43.988Z,59.899
2022-09-16T02:22:46.158Z,58.393
2022-09-16T02:37:48.419Z,59.774
2022-09-16T02:52:50.701Z,58.407
2022-09-16T03:07:53.043Z,58.663
2022-09-16T03:22:55.318Z,59.173
2022-09-16T03:37:57.557Z,59.116
2022-09-16T03:52:59.780Z,59.685
2022-09-16T04:08:01.982Z,60.406
2022-09-16T04:23:04.254Z,60.816
2022-09-16T04:38:06.491Z,60.596
2022-09-16T04:53:08.686Z,63.381
2022-09-16T05:08:10.915Z,61.94
2022-09-16T05:23:13.112Z,62.911
2022-09-16T05:38:15.442Z,62.337
2022-09-16T05:53:17.838Z,61.92
2022-09-16T06:08:20.024Z,62.865
2022-09-16T06:23:22.327Z,64.392
2022-09-16T06:38:24.619Z,62.003
2022-09-16T06:53:26.855Z,63.233
2022-09-16T07:08:29.140Z,64.255
2022-09-16T07:23:31.336Z,65.321
2022-09-16T07:38:33.548Z,64.897
2022-09-16T07:53:36.021Z,62.097
2022-09-16T08:08:38.249Z,65.305
2022-09-16T08:23:40.676Z,66.47
2022-09-16T08:38:42.883Z,65.994
2022-09-16T08:53:45.178Z,66.274
2022-09-16T09:08:47.427Z,67.909
2022-09-16T09:23:49.623Z,66.967
2022-09-16T09:38:51.868Z,64.238
2022-09-16T09:53:54.093Z,66.911
2022-09-16T10:08:56.297Z,67.397
2022-09-16T10:23:58.526Z,65.699
2022-09-16T10:39:04.474Z,66.576
2022-09-16T10:54:07.432Z,67.388
2022-09-16T11:09:09.722Z,65.761
2022-09-16T11:24:11.985Z,65.449
2022-09-16T11:39:14.205Z,66.309
2022-09-16T11:54:16.587Z,68.177
2022-09-16T12:09:18.841Z,67.362
2022-09-16T12:24:21.159Z,65.821
2022-09-16T12:39:23.373Z,65.87
2022-09-16T12:54:25.570Z,67.32
2022-09-16T13:09:27.964Z,67.474
2022-09-16T13:24:30.378Z,67.252
2022-09-16T13:39:32.603Z,68.734
2022-09-16T13:54:43.191Z,67.233
2022-09-16T14:09:56.026Z,67.604
2022-09-16T14:25:06.898Z,64.859
2022-09-16T14:40:21.539Z,71.708
2022-09-16T14:55:23.883Z,72.135
2022-09-16T15:10:26.103Z,67.032
2022-09-16T15:25:28.333Z,68.351
2022-09-16T15:40:30.938Z,72.527
2022-09-16T15:55:33.233Z,68.62
2022-09-16T16:10:35.501Z,67.195
2022-09-16T16:25:37.819Z,68.789
2022-09-16T16:40:40.157Z,72.21
2022-09-16T16:55:42.387Z,70.021
2022-09-16T17:10:44.576Z,67.817
2022-09-16T17:25:46.805Z,68.73
2022-09-16T17:40:49.040Z,67.786
2022-09-16T17:55:51.301Z,65.269
2022-09-16T18:10:53.658Z,66.052
2022-09-16T18:25:56.111Z,68.302
2022-09-16T18:40:58.392Z,66.478
2022-09-16T18:56:00.764Z,63.384
2022-09-16T19:11:02.946Z,63.701
2022-09-16T19:26:05.254Z,61.199
2022-09-16T19:41:07.586Z,60.017
2022-09-16T19:56:09.859Z,59.825
2022-09-16T20:11:12.197Z,57.876
2022-09-16T20:26:14.446Z,59.133
2022-09-16T20:41:16.642Z,56.708
2022-09-16T20:56:18.911Z,56.691
2022-09-16T21:11:21.167Z,57.315
2022-09-16T21:26:23.805Z,56.144
2022-09-16T21:41:26.161Z,57.676
2022-09-16T21:56:28.431Z,62.481
2022-09-16T22:11:30.634Z,62.431
2022-09-16T22:26:32.836Z,60.995
2022-09-16T22:41:35.039Z,61.894
2022-09-16T22:56:37.268Z,66.761
2022-09-16T23:11:39.466Z,66.08
2022-09-16T23:26:41.689Z,67.136
2022-09-16T23:41:43.926Z,68.952
2022-09-16T23:56:46.127Z,70.237
